createdAt,value
2023-05-10T00:00:46.224Z,100514.72
2023-05-10T00:03:13.473Z,100511.22
2023-05-10T00:05:40.611Z,100505.13
2023-05-10T00:08:08.246Z,100505.13
2023-05-10T00:10:35.339Z,100506.00
2023-05-10T00:13:02.799Z,100506.84
2023-05-10T00:15:31.651Z,100505.94
2023-05-10T00:17:59.556Z,100507.69
2023-05-10T00:20:27.011Z,100501.53
2023-05-10T00:22:53.947Z,100498.03
2023-05-10T00:25:22.723Z,100500.63
2023-05-10T00:27:50.943Z,100491.88
2023-05-10T00:30:18.140Z,100490.09
2023-05-10T00:32:45.782Z,100490.09
2023-05-10T00:35:12.871Z,100491.84
2023-05-10T00:37:40.243Z,100485.72
2023-05-10T00:40:08.180Z,100490.94
2023-05-10T00:42:35.236Z,100485.69
2023-05-10T00:45:02.494Z,100480.44
2023-05-10T00:47:30.899Z,100490.06
2023-05-10T00:49:58.471Z,100488.28
2023-05-10T00:52:27.115Z,100484.78
2023-05-10T00:54:54.635Z,100482.16
2023-05-10T00:57:22.376Z,100489.09
2023-05-10T00:59:49.871Z,100483.84
2023-05-10T01:02:16.952Z,100484.69
2023-05-10T01:04:44.562Z,100482.94
2023-05-10T01:07:11.706Z,100488.16
2023-05-10T01:09:38.883Z,100486.38
2023-05-10T01:12:08.030Z,100480.22
2023-05-10T01:14:37.419Z,100482.81
2023-05-10T01:17:07.375Z,100486.34
2023-05-10T01:19:36.160Z,100476.72
2023-05-10T01:22:15.070Z,100474.94
2023-05-10T01:24:48.133Z,100474.91
2023-05-10T01:27:37.103Z,100477.50
2023-05-10T01:30:27.034Z,100474.88
2023-05-10T01:33:19.294Z,100475.72
2023-05-10T01:35:54.625Z,100478.34
2023-05-10T01:38:48.057Z,100469.56
2023-05-10T01:41:26.310Z,100471.28
2023-05-10T01:44:23.271Z,100467.78
2023-05-10T01:47:07.443Z,100470.41
2023-05-10T01:49:41.291Z,100464.31
2023-05-10T01:52:13.455Z,100468.63
2023-05-10T01:54:46.380Z,100470.38
2023-05-10T01:57:17.995Z,100468.59
2023-05-10T01:59:51.276Z,100468.63
2023-05-10T02:02:22.021Z,100456.44
2023-05-10T02:04:51.972Z,100460.81
2023-05-10T02:07:20.435Z,100463.44
2023-05-10T02:09:52.147Z,100466.97
2023-05-10T02:12:22.700Z,100467.00
2023-05-10T02:14:52.524Z,100460.03
2023-05-10T02:17:20.181Z,100455.72
2023-05-10T02:19:49.993Z,100460.97
2023-05-10T02:22:18.932Z,100469.72
2023-05-10T02:24:48.410Z,100463.63
2023-05-10T02:27:17.069Z,100463.66
2023-05-10T02:29:45.886Z,100457.56
2023-05-10T02:32:14.279Z,100456.69
2023-05-10T02:34:42.449Z,100455.81
2023-05-10T02:37:11.334Z,100459.31
2023-05-10T02:39:41.711Z,100459.25
2023-05-10T02:42:09.799Z,100461.00
2023-05-10T02:44:38.552Z,100462.75
2023-05-10T02:47:05.996Z,100459.19
2023-05-10T02:49:33.070Z,100466.16
2023-05-10T02:52:06.428Z,100463.50
2023-05-10T02:54:45.058Z,100457.31
2023-05-10T02:57:20.585Z,100455.53
2023-05-10T02:59:47.694Z,100457.22
2023-05-10T03:02:15.515Z,100465.88
2023-05-10T03:04:42.778Z,100458.81
2023-05-10T03:07:10.318Z,100463.09
2023-05-10T03:09:37.607Z,100458.63
2023-05-10T03:12:20.547Z,100462.88
2023-05-10T03:14:54.569Z,100467.13
2023-05-10T03:17:37.860Z,100467.03
2023-05-10T03:20:11.149Z,100459.00
2023-05-10T03:22:42.199Z,100468.44
2023-05-10T03:25:12.197Z,100470.00
2023-05-10T03:27:43.336Z,100463.66
2023-05-10T03:30:13.225Z,100465.19
2023-05-10T03:32:41.285Z,100459.66
2023-05-10T03:35:14.369Z,100464.63
2023-05-10T03:37:42.458Z,100466.88
2023-05-10T03:40:11.373Z,100464.72
2023-05-10T03:42:41.371Z,100464.25
2023-05-10T03:45:10.044Z,100470.78
2023-05-10T03:47:37.280Z,100467.56
2023-05-10T03:50:05.495Z,100463.44
2023-05-10T03:52:33.562Z,100467.34
2023-05-10T03:55:01.257Z,100458.09
2023-05-10T03:57:28.680Z,100462.13
2023-05-10T03:59:56.109Z,100457.31
2023-05-10T04:02:24.214Z,100455.91
2023-05-10T04:04:52.172Z,100456.34
2023-05-10T04:07:19.504Z,100456.72
2023-05-10T04:09:46.850Z,100459.69
2023-05-10T04:12:14.212Z,100458.25
2023-05-10T04:14:42.363Z,100464.81
2023-05-10T04:17:09.889Z,100460.69
2023-05-10T04:19:36.886Z,100465.22
2023-05-10T04:22:04.381Z,100467.88
2023-05-10T04:24:31.277Z,100460.84
2023-05-10T04:26:58.477Z,100459.97
2023-05-10T04:29:25.893Z,100456.41
2023-05-10T04:31:53.234Z,100452.09
2023-05-10T04:34:22.243Z,100460.22
2023-05-10T04:36:49.466Z,100455.56
2023-05-10T04:39:16.740Z,100452.41
2023-05-10T04:41:43.932Z,100445.97
2023-05-10T04:44:11.120Z,100438.56
2023-05-10T04:46:38.524Z,100434.16
2023-05-10T04:49:05.660Z,100443.69
2023-05-10T04:51:33.397Z,100439.66
2023-05-10T04:54:06.547Z,100438.00
2023-05-10T04:56:34.634Z,100444.88
2023-05-10T04:59:02.287Z,100445.44
2023-05-10T05:01:29.467Z,100443.38
2023-05-10T05:03:57.403Z,100443.78
2023-05-10T05:06:25.992Z,100452.22
2023-05-10T05:08:53.161Z,100443.69
2023-05-10T05:11:20.596Z,100439.47
2023-05-10T05:13:48.079Z,100445.22
2023-05-10T05:16:15.604Z,100439.84
2023-05-10T05:18:42.721Z,100441.19
2023-05-10T05:21:20.890Z,100439.59
2023-05-10T05:23:48.306Z,100437.03
2023-05-10T05:26:16.143Z,100440.19
2023-05-10T05:28:43.802Z,100449.91
2023-05-10T05:31:11.237Z,100447.53
2023-05-10T05:33:39.610Z,100453.25
2023-05-10T05:36:07.558Z,100452.53
2023-05-10T05:38:34.838Z,100446.06
2023-05-10T05:41:02.047Z,100456.34
2023-05-10T05:43:29.306Z,100452.13
2023-05-10T05:46:15.742Z,100453.31
2023-05-10T05:48:43.102Z,100443.53
2023-05-10T05:51:10.708Z,100440.47
2023-05-10T05:53:37.806Z,100431.22
2023-05-10T05:56:05.128Z,100425.47
2023-05-10T05:58:32.644Z,100424.06
2023-05-10T06:00:59.908Z,100419.25
2023-05-10T06:03:27.197Z,100412.34
2023-05-10T06:05:54.258Z,100410.00
2023-05-10T06:08:21.799Z,100413.66
2023-05-10T06:10:49.133Z,100412.97
2023-05-10T06:13:16.901Z,100411.03
2023-05-10T06:15:44.213Z,100408.22
2023-05-10T06:18:11.706Z,100409.69
2023-05-10T06:20:38.943Z,100416.19
2023-05-10T06:23:06.374Z,100413.06
2023-05-10T06:25:33.963Z,100415.28
2023-05-10T06:28:01.934Z,100409.47
2023-05-10T06:30:30.358Z,100421.59
2023-05-10T06:32:58.333Z,100413.75
2023-05-10T06:35:25.805Z,100403.66
2023-05-10T06:37:53.524Z,100412.41
2023-05-10T06:40:21.121Z,100409.88
2023-05-10T06:42:49.208Z,100405.66
2023-05-10T06:45:17.180Z,100405.41
2023-05-10T06:47:45.569Z,100406.84
2023-05-10T06:50:13.884Z,100402.72
2023-05-10T06:52:44.046Z,100413.25
2023-05-10T06:55:13.378Z,100417.34
2023-05-10T06:57:42.038Z,100419.94
2023-05-10T07:00:11.164Z,100411.19
2023-05-10T07:02:39.486Z,100413.69
2023-05-10T07:05:07.731Z,100415.94
2023-05-10T07:07:35.255Z,100417.22
2023-05-10T07:10:04.251Z,100422.31
2023-05-10T07:12:32.961Z,100421.66
2023-05-10T07:15:02.501Z,100410.91
2023-05-10T07:17:30.213Z,100410.09
2023-05-10T07:19:57.406Z,100407.31
2023-05-10T07:22:25.143Z,100406.94
2023-05-10T07:24:53.873Z,100406.81
2023-05-10T07:27:21.608Z,100395.03
2023-05-10T07:29:48.905Z,100403.38
2023-05-10T07:32:16.344Z,100400.00
2023-05-10T07:34:43.768Z,100407.97
2023-05-10T07:37:11.451Z,100405.78
2023-05-10T07:39:39.064Z,100400.94
2023-05-10T07:42:06.840Z,100387.91
2023-05-10T07:44:34.214Z,100398.38
2023-05-10T07:47:04.881Z,100396.59
2023-05-10T07:49:32.407Z,100402.66
2023-05-10T07:51:59.913Z,100414.34
2023-05-10T07:54:30.198Z,100401.50
2023-05-10T07:56:57.219Z,100400.34
2023-05-10T07:59:24.448Z,100406.88
2023-05-10T08:01:51.808Z,100407.94
2023-05-10T08:04:19.065Z,100403.47
2023-05-10T08:06:47.850Z,100401.06
2023-05-10T08:09:15.071Z,100397.19
2023-05-10T08:11:43.288Z,100396.28
2023-05-10T08:14:10.970Z,100394.66
2023-05-10T08:16:38.357Z,100390.31
2023-05-10T08:19:06.770Z,100382.56
2023-05-10T08:21:34.428Z,100382.97
2023-05-10T08:24:01.634Z,100387.16
2023-05-10T08:26:29.265Z,100388.25
2023-05-10T08:28:56.644Z,100383.94
2023-05-10T08:31:26.128Z,100399.22
2023-05-10T08:33:55.447Z,100396.31
2023-05-10T08:36:26.126Z,100397.47
2023-05-10T08:38:55.765Z,100408.53
2023-05-10T08:41:29.012Z,100414.69
2023-05-10T08:43:57.069Z,100410.88
2023-05-10T08:46:24.887Z,100412.84
2023-05-10T08:48:53.709Z,100413.34
2023-05-10T08:51:28.499Z,100422.19
2023-05-10T08:53:59.253Z,100418.22
2023-05-10T08:56:28.595Z,100423.28
2023-05-10T08:58:57.914Z,100424.72
2023-05-10T09:01:27.288Z,100419.72
2023-05-10T09:03:55.215Z,100420.00
2023-05-10T09:06:23.075Z,100419.53
2023-05-10T09:08:51.463Z,100423.38
2023-05-10T09:11:19.902Z,100424.09
2023-05-10T09:13:50.273Z,100417.34
2023-05-10T09:16:21.966Z,100416.84
2023-05-10T09:18:51.098Z,100415.38
2023-05-10T09:21:20.896Z,100416.28
2023-05-10T09:23:51.470Z,100410.97
2023-05-10T09:26:23.478Z,100406.81
2023-05-10T09:28:57.216Z,100408.44
2023-05-10T09:31:27.244Z,100403.72
2023-05-10T09:33:56.537Z,100397.56
2023-05-10T09:36:25.576Z,100391.03
2023-05-10T09:38:55.565Z,100396.03
2023-05-10T09:41:25.078Z,100409.25
2023-05-10T09:43:57.810Z,100393.91
2023-05-10T09:46:25.675Z,100390.59
2023-05-10T09:48:54.018Z,100392.97
2023-05-10T09:51:26.083Z,100398.34
2023-05-10T09:54:17.972Z,100394.13
2023-05-10T09:56:45.371Z,100390.72
2023-05-10T09:59:14.992Z,100390.63
2023-05-10T10:01:43.143Z,100389.09
2023-05-10T10:04:11.474Z,100389.53
2023-05-10T10:06:42.335Z,100392.34
2023-05-10T10:09:14.128Z,100391.19
2023-05-10T10:11:44.004Z,100381.34
2023-05-10T10:14:14.766Z,100374.22
2023-05-10T10:16:55.542Z,100367.59
2023-05-10T10:19:32.696Z,100366.06
2023-05-10T10:22:00.465Z,100363.06
2023-05-10T10:24:28.996Z,100363.94
2023-05-10T10:27:05.549Z,100367.47
2023-05-10T10:30:11.146Z,100376.28
2023-05-10T10:32:58.987Z,100369.06
2023-05-10T10:35:26.757Z,100370.25
2023-05-10T10:37:56.997Z,100368.94
2023-05-10T10:43:47.344Z,100368.72
2023-05-10T10:46:19.041Z,100372.13
2023-05-10T10:48:55.334Z,100367.59
2023-05-10T10:51:26.383Z,100371.03
2023-05-10T10:53:55.148Z,100365.44
2023-05-10T10:56:27.054Z,100357.94
2023-05-10T10:58:54.970Z,100358.06
2023-05-10T11:01:26.077Z,100359.09
2023-05-10T11:04:02.433Z,100360.97
2023-05-10T11:06:34.655Z,100353.84
2023-05-10T11:09:10.669Z,100352.44
2023-05-10T11:11:49.361Z,100354.66
2023-05-10T11:14:22.458Z,100355.09
2023-05-10T11:16:57.671Z,100349.41
2023-05-10T11:19:29.193Z,100340.75
2023-05-10T11:22:04.862Z,100346.13
2023-05-10T11:24:32.080Z,100339.47
2023-05-10T11:26:59.660Z,100340.13
2023-05-10T11:29:29.113Z,100337.72
2023-05-10T11:32:00.921Z,100334.72
2023-05-10T11:34:34.886Z,100336.00
2023-05-10T11:37:04.403Z,100338.56
2023-05-10T11:39:37.078Z,100339.91
2023-05-10T11:42:04.858Z,100334.91
2023-05-10T11:44:33.066Z,100336.53
2023-05-10T11:47:01.814Z,100338.03
2023-05-10T11:49:31.882Z,100337.28
2023-05-10T11:52:10.227Z,100337.19
2023-05-10T11:54:42.377Z,100333.06
2023-05-10T11:57:10.021Z,100337.44
2023-05-10T11:59:43.195Z,100331.16
2023-05-10T12:02:12.544Z,100335.47
2023-05-10T12:04:41.692Z,100335.16
2023-05-10T12:07:13.943Z,100331.72
2023-05-10T12:10:06.718Z,100331.31
2023-05-10T12:12:45.194Z,100326.97
2023-05-10T12:15:23.512Z,100327.59
2023-05-10T12:17:51.887Z,100323.25
2023-05-10T12:20:26.443Z,100323.31
2023-05-10T12:23:06.153Z,100311.25
2023-05-10T12:25:35.743Z,100315.81
2023-05-10T12:28:10.749Z,100311.69
2023-05-10T12:30:38.801Z,100305.28
2023-05-10T12:33:11.876Z,100312.63
2023-05-10T12:36:02.859Z,100299.72
2023-05-10T12:38:47.409Z,100308.03
2023-05-10T12:41:17.271Z,100311.03
2023-05-10T12:44:10.950Z,100302.69
2023-05-10T12:46:38.368Z,100296.63
2023-05-10T12:49:09.330Z,100303.09
2023-05-10T12:51:36.566Z,100302.28
2023-05-10T12:54:04.649Z,100290.00
2023-05-10T12:56:31.691Z,100291.88
2023-05-10T12:59:01.209Z,100289.81
2023-05-10T13:01:33.883Z,100286.59
2023-05-10T13:04:01.874Z,100287.88
2023-05-10T13:06:29.641Z,100277.13
2023-05-10T13:08:56.677Z,100264.38
2023-05-10T13:11:23.612Z,100274.88
2023-05-10T13:13:50.688Z,100280.63
2023-05-10T13:16:17.751Z,100282.81
2023-05-10T13:18:44.653Z,100286.97
2023-05-10T13:21:12.408Z,100285.16
2023-05-10T13:23:39.601Z,100291.50
2023-05-10T13:26:06.504Z,100292.53
2023-05-10T13:28:33.411Z,100295.13
2023-05-10T13:31:01.256Z,100295.91
2023-05-10T13:33:28.239Z,100298.66
2023-05-10T13:35:55.830Z,100295.13
2023-05-10T13:38:22.921Z,100296.00
2023-05-10T13:40:53.592Z,100302.72
2023-05-10T13:43:21.148Z,100294.22
2023-05-10T13:45:50.267Z,100294.03
2023-05-10T13:48:17.238Z,100294.66
2023-05-10T13:50:44.600Z,100296.97
2023-05-10T13:53:11.654Z,100296.34
2023-05-10T13:55:39.411Z,100292.09
2023-05-10T13:58:09.194Z,100288.56
2023-05-10T14:00:36.638Z,100293.50
2023-05-10T14:03:07.853Z,100294.75
2023-05-10T14:05:35.696Z,100289.00
2023-05-10T14:08:06.309Z,100289.44
2023-05-10T14:10:33.425Z,100282.13
2023-05-10T14:13:00.546Z,100294.31
2023-05-10T14:15:27.521Z,100285.84
2023-05-10T14:17:54.507Z,100285.84
2023-05-10T14:20:21.557Z,100288.31
2023-05-10T14:22:48.504Z,100288.28
2023-05-10T14:25:16.090Z,100290.00
2023-05-10T14:27:43.982Z,100292.09
2023-05-10T14:30:12.379Z,100294.00
2023-05-10T14:32:39.473Z,100289.63
2023-05-10T14:35:07.390Z,100295.72
2023-05-10T14:37:34.451Z,100287.09
2023-05-10T14:40:01.553Z,100295.91
2023-05-10T14:42:29.559Z,100298.19
2023-05-10T14:44:56.390Z,100298.69
2023-05-10T14:47:23.186Z,100300.50
2023-05-10T14:49:50.001Z,100302.66
2023-05-10T14:52:17.046Z,100301.47
2023-05-10T14:54:46.967Z,100297.38
2023-05-10T14:57:14.223Z,100296.66
2023-05-10T14:59:41.363Z,100296.63
2023-05-10T15:02:19.400Z,100290.91
2023-05-10T15:04:48.370Z,100290.50
2023-05-10T15:07:17.444Z,100289.22
2023-05-10T15:09:47.571Z,100290.44
2023-05-10T15:12:14.554Z,100282.84
2023-05-10T15:14:41.478Z,100292.88
2023-05-10T15:17:08.876Z,100293.53
2023-05-10T15:19:36.022Z,100292.72
2023-05-10T15:22:06.307Z,100297.81
2023-05-10T15:24:33.505Z,100296.44
2023-05-10T15:27:01.859Z,100288.56
2023-05-10T15:29:28.884Z,100290.41
2023-05-10T15:31:58.275Z,100300.00
2023-05-10T15:34:29.720Z,100305.00
2023-05-10T15:36:57.803Z,100300.47
2023-05-10T15:39:27.709Z,100298.81
2023-05-10T15:42:00.363Z,100296.66
2023-05-10T15:44:32.552Z,100296.53
2023-05-10T15:47:01.527Z,100298.28
2023-05-10T15:49:34.663Z,100289.59
2023-05-10T15:52:04.451Z,100295.84
2023-05-10T15:54:35.144Z,100299.59
2023-05-10T15:57:02.422Z,100301.28
2023-05-10T15:59:31.783Z,100306.13
2023-05-10T16:01:59.450Z,100304.56
2023-05-10T16:04:31.767Z,100308.81
2023-05-10T16:07:01.789Z,100307.22
2023-05-10T16:09:32.596Z,100309.59
2023-05-10T16:12:01.912Z,100311.22
2023-05-10T16:14:35.193Z,100311.53
2023-05-10T16:17:15.493Z,100311.25
2023-05-10T16:19:47.515Z,100310.56
2023-05-10T16:22:28.382Z,100308.34
2023-05-10T16:24:58.193Z,100310.38
2023-05-10T16:27:32.878Z,100318.78
2023-05-10T16:33:02.995Z,100315.50
2023-05-10T16:35:35.902Z,100313.16
2023-05-10T16:38:07.014Z,100321.53
2023-05-10T16:40:37.519Z,100317.53
2023-05-10T16:43:11.549Z,100322.47
2023-05-10T16:45:40.598Z,100322.28
2023-05-10T16:48:47.812Z,100320.16
2023-05-10T16:51:27.275Z,100323.56
2023-05-10T16:56:41.277Z,100323.03
2023-05-10T16:59:09.286Z,100321.72
2023-05-10T17:01:42.766Z,100323.91
2023-05-10T17:04:10.594Z,100324.50
2023-05-10T17:06:42.292Z,100325.97
2023-05-10T17:09:09.962Z,100329.34
2023-05-10T17:11:44.007Z,100325.69
2023-05-10T17:14:17.253Z,100331.44
2023-05-10T17:16:45.109Z,100337.16
2023-05-10T17:19:19.536Z,100335.72
2023-05-10T17:21:47.196Z,100338.69
2023-05-10T17:24:15.854Z,100343.41
2023-05-10T17:26:49.918Z,100345.53
2023-05-10T17:29:18.177Z,100350.34
2023-05-10T17:31:47.403Z,100354.06
2023-05-10T17:34:18.372Z,100355.03
2023-05-10T17:36:52.473Z,100354.19
2023-05-10T17:39:19.973Z,100358.75
2023-05-10T17:41:50.280Z,100355.28
2023-05-10T17:44:18.538Z,100356.25
2023-05-10T17:46:48.617Z,100357.19
2023-05-10T17:49:17.215Z,100362.63
2023-05-10T17:51:47.292Z,100368.94
2023-05-10T17:54:20.263Z,100369.88
2023-05-10T17:56:51.693Z,100371.81
2023-05-10T17:59:22.202Z,100375.44
2023-05-10T18:01:51.045Z,100381.78
2023-05-10T18:04:21.112Z,100375.72
2023-05-10T18:06:49.597Z,100376.84
2023-05-10T18:09:18.165Z,100382.34
2023-05-10T18:11:47.963Z,100378.19
2023-05-10T18:14:32.021Z,100382.00
2023-05-10T18:17:06.394Z,100376.19
2023-05-10T18:19:37.319Z,100385.34
2023-05-10T18:22:08.100Z,100382.28
2023-05-10T18:24:39.542Z,100396.03
2023-05-10T18:27:10.187Z,100396.59
2023-05-10T18:29:45.733Z,100389.19
2023-05-10T18:32:26.408Z,100397.66
2023-05-10T18:35:27.519Z,100390.34
2023-05-10T18:38:00.831Z,100394.34
2023-05-10T18:40:31.121Z,100402.72
2023-05-10T18:42:58.660Z,100405.72
2023-05-10T18:45:28.384Z,100402.50
2023-05-10T18:47:56.623Z,100401.03
2023-05-10T18:50:29.708Z,100405.69
2023-05-10T18:52:57.899Z,100407.66
2023-05-10T18:55:28.700Z,100398.19
2023-05-10T18:57:56.497Z,100404.47
2023-05-10T19:01:16.454Z,100410.78
2023-05-10T19:07:05.183Z,100417.50
2023-05-10T19:09:38.516Z,100414.28
2023-05-10T19:12:16.778Z,100423.38
2023-05-10T19:14:43.901Z,100418.38
2023-05-10T19:17:18.976Z,100423.84
2023-05-10T19:19:54.092Z,100421.34
2023-05-10T19:22:36.046Z,100418.03
2023-05-10T19:25:14.815Z,100420.84
2023-05-10T19:27:43.339Z,100425.47
2023-05-10T19:30:14.629Z,100431.78
2023-05-10T19:32:44.427Z,100434.56
2023-05-10T19:35:13.754Z,100428.56
2023-05-10T19:37:46.100Z,100426.09
2023-05-10T19:40:27.328Z,100427.06
2023-05-10T19:43:28.070Z,100427.25
2023-05-10T19:46:19.447Z,100429.13
2023-05-10T19:49:00.518Z,100440.59
2023-05-10T19:51:37.269Z,100432.06
2023-05-10T19:54:24.346Z,100424.25
2023-05-10T19:56:53.868Z,100438.25
2023-05-10T19:59:23.632Z,100433.91
2023-05-10T20:02:01.557Z,100434.75
2023-05-10T20:04:29.428Z,100438.25
2023-05-10T20:06:56.652Z,100440.03
2023-05-10T20:09:24.453Z,100434.84
2023-05-10T20:11:53.404Z,100429.63
2023-05-10T20:14:24.460Z,100433.19
2023-05-10T20:16:58.089Z,100429.72
2023-05-10T20:19:29.173Z,100436.75
2023-05-10T20:21:58.898Z,100427.16
2023-05-10T20:24:32.386Z,100428.03
2023-05-10T20:27:03.527Z,100432.44
2023-05-10T20:29:34.478Z,100428.13
2023-05-10T20:32:02.646Z,100429.00
2023-05-10T20:34:31.290Z,100430.78
2023-05-10T20:37:00.399Z,100433.41
2023-05-10T20:39:28.214Z,100431.72
2023-05-10T20:41:56.914Z,100432.63
2023-05-10T20:44:24.542Z,100437.91
2023-05-10T20:46:56.334Z,100436.19
2023-05-10T20:49:33.243Z,100434.44
2023-05-10T20:52:01.386Z,100441.44
2023-05-10T20:54:39.789Z,100435.34
2023-05-10T20:57:09.032Z,100431.03
2023-05-10T20:59:37.923Z,100440.66
2023-05-10T21:02:06.085Z,100434.56
2023-05-10T21:04:41.063Z,100440.66
2023-05-10T21:07:14.538Z,100435.41
2023-05-10T21:09:44.492Z,100441.53
2023-05-10T21:12:14.924Z,100434.56
2023-05-10T21:14:48.080Z,100442.41
2023-05-10T21:17:16.951Z,100443.28
2023-05-10T21:19:45.954Z,100438.06
2023-05-10T21:22:13.955Z,100444.13
2023-05-10T21:24:41.906Z,100440.66
2023-05-10T21:27:09.949Z,100444.16
2023-05-10T21:29:40.833Z,100445.84
2023-05-10T21:36:05.958Z,100441.50
2023-05-10T21:38:53.235Z,100444.97
2023-05-10T21:41:21.394Z,100437.97
2023-05-10T21:43:49.461Z,100447.56
2023-05-10T21:46:16.784Z,100448.41
2023-05-10T21:48:44.429Z,100435.34
2023-05-10T21:51:12.697Z,100438.81
2023-05-10T21:53:41.177Z,100438.81
2023-05-10T21:56:13.100Z,100435.28
2023-05-10T21:58:45.392Z,100439.59
2023-05-10T22:01:18.191Z,100441.28
2023-05-10T22:03:55.597Z,100438.63
2023-05-10T22:06:26.128Z,100437.78
2023-05-10T22:08:54.432Z,100443.00
2023-05-10T22:11:26.458Z,100446.47
2023-05-10T22:13:54.668Z,100446.47
2023-05-10T22:16:22.406Z,100441.25
2023-05-10T22:18:50.094Z,100443.81
2023-05-10T22:21:20.453Z,100443.78
2023-05-10T22:23:48.441Z,100442.88
2023-05-10T22:26:56.532Z,100445.50
2023-05-10T22:29:44.780Z,100451.56
2023-05-10T22:32:27.304Z,100444.56
2023-05-10T22:34:56.522Z,100448.94
2023-05-10T22:37:25.462Z,100450.66
2023-05-10T22:39:57.799Z,100450.66
2023-05-10T22:42:25.596Z,100448.03
2023-05-10T22:44:56.956Z,100438.50
2023-05-10T22:47:24.433Z,100439.31
2023-05-10T22:49:56.434Z,100441.91
2023-05-10T22:52:24.042Z,100443.63
2023-05-10T22:54:51.497Z,100452.31
2023-05-10T22:57:25.452Z,100452.31
2023-05-10T22:59:56.600Z,100450.59
2023-05-10T23:02:24.374Z,100454.06
2023-05-10T23:04:53.212Z,100446.22
2023-05-10T23:07:25.141Z,100451.44
2023-05-10T23:09:54.071Z,100448.84
2023-05-10T23:12:21.827Z,100450.56
2023-05-10T23:14:52.010Z,100452.28
2023-05-10T23:17:22.976Z,100455.75
2023-05-10T23:19:51.351Z,100447.94
2023-05-10T23:22:19.804Z,100453.94
2023-05-10T23:24:47.623Z,100463.41
2023-05-10T23:27:20.105Z,100450.34
2023-05-10T23:29:48.859Z,100458.16
2023-05-10T23:32:25.379Z,100447.69
2023-05-10T23:34:53.637Z,100457.16
2023-05-10T23:37:21.893Z,100457.16
2023-05-10T23:39:49.641Z,100461.47
2023-05-10T23:42:17.220Z,100460.53
2023-05-10T23:44:45.289Z,100455.22
2023-05-10T23:47:15.352Z,100456.06
2023-05-10T23:49:43.335Z,100456.81
2023-05-10T23:52:13.862Z,100463.69
2023-05-10T23:54:40.938Z,100467.09
2023-05-10T23:57:07.931Z,100473.94
2023-05-10T23:59:34.775Z,100465.19
